createdAt,value
2022-08-26T00:01:52.706Z,11.80
2022-08-26T00:04:21.697Z,11.43
2022-08-26T00:06:48.948Z,11.27
2022-08-26T00:09:16.809Z,12.15
2022-08-26T00:11:45.353Z,11.18
2022-08-26T00:14:14.037Z,12.40
2022-08-26T00:16:47.525Z,11.23
2022-08-26T00:19:18.132Z,12.35
2022-08-26T00:21:46.213Z,10.93
2022-08-26T00:24:16.626Z,11.63
2022-08-26T00:26:44.255Z,12.05
2022-08-26T00:29:12.412Z,11.50
2022-08-26T00:31:40.425Z,12.38
2022-08-26T00:34:09.573Z,12.65
2022-08-26T00:36:39.810Z,11.93
2022-08-26T00:39:08.546Z,11.70
2022-08-26T00:41:39.255Z,11.75
2022-08-26T00:44:06.863Z,13.23
2022-08-26T00:46:39.845Z,12.25
2022-08-26T00:49:23.130Z,12.55
2022-08-26T00:51:54.502Z,12.25
2022-08-26T00:54:26.896Z,12.63
2022-08-26T00:57:04.967Z,12.55
2022-08-26T00:59:36.397Z,14.00
2022-08-26T01:02:06.649Z,13.75
2022-08-26T01:04:48.678Z,12.73
2022-08-26T01:07:21.847Z,13.25
2022-08-26T01:09:49.294Z,14.63
2022-08-26T01:12:21.949Z,14.00
2022-08-26T01:14:50.120Z,13.25
2022-08-26T01:17:17.372Z,13.70
2022-08-26T01:19:49.076Z,13.23
2022-08-26T01:22:26.730Z,14.18
2022-08-26T01:24:57.558Z,14.65
2022-08-26T01:27:27.428Z,13.90
2022-08-26T01:30:01.310Z,14.13
2022-08-26T01:32:31.837Z,14.07
2022-08-26T01:34:59.344Z,13.90
2022-08-26T01:37:34.514Z,14.43
2022-08-26T01:40:01.599Z,13.13
2022-08-26T01:42:29.112Z,13.60
2022-08-26T01:45:00.401Z,14.38
2022-08-26T01:47:30.940Z,14.38
2022-08-26T01:50:01.015Z,14.55
2022-08-26T01:52:33.210Z,14.05
2022-08-26T01:55:00.967Z,14.30
2022-08-26T01:57:29.083Z,14.90
2022-08-26T02:00:01.103Z,15.13
2022-08-26T02:02:28.347Z,15.10
2022-08-26T02:05:00.496Z,15.30
2022-08-26T02:07:28.468Z,14.77
2022-08-26T02:09:55.728Z,14.85
2022-08-26T02:12:23.262Z,14.45
2022-08-26T02:14:54.265Z,14.75
2022-08-26T02:17:26.116Z,14.45
2022-08-26T02:19:53.897Z,14.48
2022-08-26T02:22:24.641Z,14.15
2022-08-26T02:24:56.493Z,14.77
2022-08-26T02:27:32.357Z,15.27
2022-08-26T02:30:24.289Z,14.90
2022-08-26T02:32:53.993Z,13.70
2022-08-26T02:35:23.353Z,14.13
2022-08-26T02:37:52.242Z,15.10
2022-08-26T02:40:23.860Z,14.38
2022-08-26T02:42:53.070Z,15.38
2022-08-26T02:45:23.169Z,14.35
2022-08-26T02:47:52.227Z,14.95
2022-08-26T02:50:20.738Z,13.82
2022-08-26T02:52:48.563Z,13.98
2022-08-26T02:55:16.182Z,15.27
2022-08-26T02:57:43.797Z,14.98
2022-08-26T03:00:14.628Z,15.00
2022-08-26T03:02:41.837Z,14.98
2022-08-26T03:05:09.777Z,16.27
2022-08-26T03:07:36.954Z,15.85
2022-08-26T03:10:08.148Z,16.15
2022-08-26T03:12:36.266Z,14.63
2022-08-26T03:15:16.585Z,15.65
2022-08-26T03:17:46.910Z,16.63
2022-08-26T03:20:17.462Z,15.20
2022-08-26T03:22:45.634Z,16.08
2022-08-26T03:25:14.839Z,16.25
2022-08-26T03:27:42.991Z,15.63
2022-08-26T03:30:30.848Z,15.75
2022-08-26T03:32:58.004Z,16.35
2022-08-26T03:35:25.928Z,16.75
2022-08-26T03:37:54.011Z,16.75
2022-08-26T03:40:22.377Z,17.33
2022-08-26T03:42:50.555Z,15.90
2022-08-26T03:45:19.800Z,15.65
2022-08-26T03:47:47.997Z,15.73
2022-08-26T03:50:22.875Z,17.45
2022-08-26T03:52:52.293Z,16.73
2022-08-26T03:55:21.014Z,16.60
2022-08-26T03:57:51.467Z,16.80
2022-08-26T04:00:19.441Z,16.67
2022-08-26T04:02:48.888Z,17.23
2022-08-26T04:05:18.225Z,18.05
2022-08-26T04:07:45.651Z,17.85
2022-08-26T04:10:20.228Z,17.23
2022-08-26T04:12:47.774Z,17.08
2022-08-26T04:15:17.844Z,18.58
2022-08-26T04:17:45.019Z,16.38
2022-08-26T04:20:14.074Z,17.27
2022-08-26T04:22:43.561Z,17.77
2022-08-26T04:25:11.757Z,17.90
2022-08-26T04:27:39.017Z,19.05
2022-08-26T04:30:09.027Z,19.38
2022-08-26T04:32:37.369Z,17.88
2022-08-26T04:35:05.626Z,17.55
2022-08-26T04:37:33.679Z,18.13
2022-08-26T04:40:00.926Z,19.17
2022-08-26T04:42:29.410Z,18.17
2022-08-26T04:44:56.479Z,18.65
2022-08-26T04:47:23.491Z,19.00
2022-08-26T04:49:51.831Z,18.88
2022-08-26T04:52:19.291Z,20.63
2022-08-26T04:54:46.980Z,19.98
2022-08-26T04:57:14.041Z,18.92
2022-08-26T04:59:40.954Z,18.38
2022-08-26T05:02:08.280Z,19.20
2022-08-26T05:04:36.209Z,20.58
2022-08-26T05:07:03.455Z,19.95
2022-08-26T05:09:30.617Z,20.38
2022-08-26T05:11:57.653Z,18.38
2022-08-26T05:14:24.647Z,19.85
2022-08-26T05:16:52.689Z,20.70
2022-08-26T05:19:19.944Z,20.27
2022-08-26T05:21:48.826Z,20.13
2022-08-26T05:24:16.700Z,19.88
2022-08-26T05:26:44.734Z,19.70
2022-08-26T05:29:12.927Z,20.67
2022-08-26T05:31:40.209Z,20.23
2022-08-26T05:34:08.482Z,19.77
2022-08-26T05:36:36.294Z,21.00
2022-08-26T05:39:10.693Z,20.83
2022-08-26T05:41:41.173Z,20.30
2022-08-26T05:44:10.524Z,21.33
2022-08-26T05:46:39.116Z,20.45
2022-08-26T05:49:12.503Z,18.98
2022-08-26T05:51:45.257Z,20.98
2022-08-26T05:54:14.284Z,20.35
2022-08-26T05:56:48.588Z,20.25
2022-08-26T05:59:16.087Z,18.52
2022-08-26T06:01:48.454Z,19.52
2022-08-26T06:04:15.513Z,19.17
2022-08-26T06:06:43.074Z,19.45
2022-08-26T06:09:11.126Z,18.90
2022-08-26T06:11:39.081Z,20.02
2022-08-26T06:14:08.019Z,17.83
2022-08-26T06:16:38.738Z,19.20
2022-08-26T06:19:10.571Z,19.60
2022-08-26T06:21:40.237Z,18.33
2022-08-26T06:24:28.247Z,18.48
2022-08-26T06:27:01.609Z,18.95
2022-08-26T06:29:31.736Z,18.85
2022-08-26T06:31:59.519Z,18.52
2022-08-26T06:34:30.266Z,18.35
2022-08-26T06:36:59.753Z,17.75
2022-08-26T06:39:28.525Z,17.95
2022-08-26T06:41:59.331Z,17.27
2022-08-26T06:44:27.238Z,17.85
2022-08-26T06:46:54.314Z,16.90
2022-08-26T06:49:25.855Z,17.92
2022-08-26T06:51:58.391Z,16.83
2022-08-26T06:54:25.639Z,16.15
2022-08-26T06:56:52.704Z,16.70
2022-08-26T06:59:19.675Z,16.33
2022-08-26T07:01:46.943Z,16.45
2022-08-26T07:04:21.807Z,17.25
2022-08-26T07:06:52.944Z,16.48
2022-08-26T07:09:22.480Z,16.25
2022-08-26T07:11:49.658Z,15.15
2022-08-26T07:14:21.145Z,15.55
2022-08-26T07:16:50.018Z,14.95
2022-08-26T07:19:31.207Z,15.15
2022-08-26T07:22:04.209Z,14.82
2022-08-26T07:24:36.259Z,13.95
2022-08-26T07:27:05.917Z,13.88
2022-08-26T07:32:01.818Z,13.75
2022-08-26T07:34:28.853Z,14.00
2022-08-26T07:36:57.208Z,12.45
2022-08-26T07:39:26.462Z,12.32
2022-08-26T07:41:54.115Z,12.60
2022-08-26T07:44:21.394Z,11.10
2022-08-26T07:46:53.127Z,11.82
2022-08-26T07:49:22.541Z,10.85
2022-08-26T07:51:50.943Z,10.60
2022-08-26T07:54:18.777Z,9.90
2022-08-26T07:56:46.651Z,9.82
2022-08-26T07:59:15.146Z,9.60
2022-08-26T08:01:45.176Z,9.93
2022-08-26T08:04:17.363Z,10.65
2022-08-26T08:06:45.936Z,9.48
2022-08-26T08:09:16.121Z,9.98
2022-08-26T08:11:44.938Z,10.48
2022-08-26T08:14:12.831Z,9.27
2022-08-26T08:16:45.971Z,8.95
2022-08-26T08:19:15.197Z,9.25
2022-08-26T08:21:43.875Z,9.00
2022-08-26T08:24:11.956Z,9.45
2022-08-26T08:26:39.530Z,8.93
2022-08-26T08:29:08.415Z,9.45
2022-08-26T08:31:56.676Z,8.50
2022-08-26T08:34:25.908Z,9.18
2022-08-26T08:36:54.186Z,9.45
2022-08-26T08:39:22.413Z,9.40
2022-08-26T08:42:12.700Z,9.15
2022-08-26T08:44:44.712Z,9.05
2022-08-26T08:47:38.773Z,9.98
2022-08-26T08:50:15.929Z,9.77
2022-08-26T08:52:46.516Z,8.95
2022-08-26T08:55:18.092Z,9.93
2022-08-26T08:58:06.620Z,9.25
2022-08-26T09:00:46.627Z,9.45
2022-08-26T09:03:43.658Z,9.43
2022-08-26T09:06:17.378Z,9.38
2022-08-26T09:08:47.592Z,9.40
2022-08-26T09:11:18.938Z,9.63
2022-08-26T09:13:53.999Z,8.93
2022-08-26T09:16:23.831Z,9.52
2022-08-26T09:19:00.050Z,9.27
2022-08-26T09:21:29.144Z,9.02
2022-08-26T09:23:57.115Z,8.32
2022-08-26T09:26:41.162Z,9.23
2022-08-26T09:29:33.994Z,8.63
2022-08-26T09:32:24.328Z,9.20
2022-08-26T09:34:59.467Z,9.55
2022-08-26T09:37:35.611Z,10.48
2022-08-26T09:40:23.053Z,8.80
2022-08-26T09:43:09.896Z,8.63
2022-08-26T09:45:39.517Z,8.52
2022-08-26T09:48:07.758Z,9.45
2022-08-26T09:50:50.412Z,8.80
2022-08-26T09:54:09.988Z,8.65
2022-08-26T09:56:43.246Z,9.65
2022-08-26T09:59:12.201Z,9.38
2022-08-26T10:01:44.719Z,8.52
2022-08-26T10:04:24.581Z,8.57
2022-08-26T10:07:01.174Z,7.60
2022-08-26T10:09:42.097Z,7.63
2022-08-26T10:12:17.098Z,7.80
2022-08-26T10:14:56.884Z,8.20
2022-08-26T10:17:38.520Z,7.55
2022-08-26T10:20:27.483Z,7.95
2022-08-26T10:23:17.128Z,8.43
2022-08-26T10:25:44.930Z,8.23
2022-08-26T10:28:26.981Z,8.40
2022-08-26T10:31:21.334Z,8.60
2022-08-26T10:34:00.049Z,8.00
2022-08-26T10:37:15.822Z,7.80
2022-08-26T10:39:56.864Z,9.38
2022-08-26T10:42:42.706Z,9.07
2022-08-26T10:45:14.964Z,7.47
2022-08-26T10:47:51.771Z,8.85
2022-08-26T10:50:19.973Z,10.20
2022-08-26T10:53:18.296Z,12.75
2022-08-26T10:56:22.597Z,8.85
2022-08-26T10:59:18.787Z,7.97
2022-08-26T11:02:00.254Z,8.68
2022-08-26T11:04:49.959Z,8.32
2022-08-26T11:07:39.192Z,7.22
2022-08-26T11:10:21.471Z,6.45
2022-08-26T11:12:53.377Z,7.32
2022-08-26T11:15:24.823Z,6.97
2022-08-26T11:17:51.919Z,8.13
2022-08-26T11:20:28.558Z,8.02
2022-08-26T11:22:59.628Z,7.45
2022-08-26T11:25:30.832Z,7.65
2022-08-26T11:28:00.410Z,7.30
2022-08-26T11:30:39.560Z,7.75
2022-08-26T11:33:08.493Z,7.97
2022-08-26T11:35:37.358Z,7.32
2022-08-26T11:38:34.107Z,8.63
2022-08-26T11:41:11.268Z,8.05
2022-08-26T11:43:40.718Z,7.82
2022-08-26T11:46:10.859Z,8.38
2022-08-26T11:48:41.511Z,8.68
2022-08-26T11:51:24.309Z,7.32
2022-08-26T11:53:51.847Z,8.18
2022-08-26T11:56:26.356Z,8.73
2022-08-26T11:58:59.724Z,8.18
2022-08-26T12:01:36.520Z,7.60
2022-08-26T12:04:06.139Z,8.13
2022-08-26T12:06:38.917Z,7.30
2022-08-26T12:09:20.870Z,7.38
2022-08-26T12:11:48.059Z,7.25
2022-08-26T12:14:33.197Z,6.97
2022-08-26T12:17:14.476Z,7.57
2022-08-26T12:19:43.556Z,7.65
2022-08-26T12:22:22.571Z,7.47
2022-08-26T12:24:56.349Z,7.63
2022-08-26T12:27:30.907Z,7.47
2022-08-26T12:30:02.792Z,7.22
2022-08-26T12:32:31.531Z,7.50
2022-08-26T12:37:33.628Z,8.45
2022-08-26T12:40:35.473Z,7.47
2022-08-26T12:43:05.246Z,7.35
2022-08-26T12:45:37.025Z,7.63
2022-08-26T12:48:32.014Z,8.05
2022-08-26T12:51:00.262Z,7.85
2022-08-26T12:53:30.844Z,7.45
2022-08-26T12:56:04.776Z,7.85
2022-08-26T12:58:33.025Z,7.30
2022-08-26T13:01:09.058Z,7.75
2022-08-26T13:03:54.081Z,7.53
2022-08-26T13:06:21.304Z,7.75
2022-08-26T13:08:56.292Z,8.00
2022-08-26T13:11:44.989Z,7.80
2022-08-26T13:14:18.367Z,6.80
2022-08-26T13:16:50.929Z,7.80
2022-08-26T13:19:21.082Z,7.55
2022-08-26T13:21:53.997Z,6.50
2022-08-26T13:24:42.460Z,7.60
2022-08-26T13:27:12.367Z,7.22
2022-08-26T13:29:40.083Z,7.28
2022-08-26T13:32:08.891Z,7.35
2022-08-26T13:34:37.343Z,7.03
2022-08-26T13:37:05.341Z,7.03
2022-08-26T13:39:32.505Z,7.90
2022-08-26T13:42:00.339Z,6.63
2022-08-26T13:44:27.576Z,7.07
2022-08-26T13:46:54.810Z,6.95
2022-08-26T13:49:22.685Z,6.88
2022-08-26T13:51:49.825Z,7.18
2022-08-26T13:54:16.853Z,7.25
2022-08-26T13:56:43.926Z,6.88
2022-08-26T13:59:11.055Z,6.95
2022-08-26T14:01:40.169Z,6.90
2022-08-26T14:04:07.589Z,8.38
2022-08-26T14:06:34.756Z,7.82
2022-08-26T14:09:01.769Z,7.72
2022-08-26T14:11:29.699Z,8.32
2022-08-26T14:14:06.064Z,8.25
2022-08-26T14:16:37.219Z,7.75
2022-08-26T14:19:24.509Z,7.30
2022-08-26T14:21:51.585Z,8.27
2022-08-26T14:24:19.167Z,7.93
2022-08-26T14:26:48.577Z,7.38
2022-08-26T14:29:16.855Z,7.45
2022-08-26T14:31:44.825Z,7.60
2022-08-26T14:34:13.920Z,7.60
2022-08-26T14:36:40.921Z,8.35
2022-08-26T14:39:10.580Z,7.18
2022-08-26T14:44:27.857Z,7.45
2022-08-26T14:46:55.000Z,7.22
2022-08-26T14:49:23.757Z,8.10
2022-08-26T14:51:50.922Z,7.40
2022-08-26T14:54:19.040Z,7.47
2022-08-26T14:57:05.081Z,7.15
2022-08-26T14:59:35.027Z,7.60
2022-08-26T15:02:03.023Z,8.65
2022-08-26T15:04:30.484Z,7.65
2022-08-26T15:06:59.722Z,8.50
2022-08-26T15:09:29.081Z,7.72
2022-08-26T15:11:56.139Z,8.90
2022-08-26T15:14:24.000Z,8.20
2022-08-26T15:16:56.264Z,7.45
2022-08-26T15:19:28.494Z,7.47
2022-08-26T15:21:55.715Z,7.25
2022-08-26T15:24:24.781Z,7.00
2022-08-26T15:26:53.152Z,7.03
2022-08-26T15:29:20.726Z,6.25
2022-08-26T15:31:48.812Z,6.15
2022-08-26T15:34:17.016Z,6.22
2022-08-26T15:36:46.829Z,6.00
2022-08-26T15:39:15.876Z,6.10
2022-08-26T15:41:43.259Z,6.03
2022-08-26T15:44:11.602Z,6.38
2022-08-26T15:46:39.290Z,6.57
2022-08-26T15:49:07.154Z,6.68
2022-08-26T15:51:45.081Z,6.60
2022-08-26T15:54:13.971Z,6.67
2022-08-26T15:56:40.998Z,6.38
2022-08-26T15:59:11.715Z,6.90
2022-08-26T16:01:39.533Z,7.72
2022-08-26T16:04:06.999Z,7.45
2022-08-26T16:06:36.523Z,8.25
2022-08-26T16:09:04.424Z,7.70
2022-08-26T16:11:31.661Z,7.95
2022-08-26T16:13:58.742Z,7.28
2022-08-26T16:16:26.568Z,7.35
2022-08-26T16:18:54.032Z,7.40
2022-08-26T16:21:28.861Z,7.60
2022-08-26T16:23:57.393Z,7.43
2022-08-26T16:26:32.483Z,8.07
2022-08-26T16:29:01.985Z,8.73
2022-08-26T16:31:29.517Z,7.97
2022-08-26T16:33:56.702Z,8.10
2022-08-26T16:36:23.767Z,8.30
2022-08-26T16:38:56.476Z,7.78
2022-08-26T16:41:28.533Z,8.73
2022-08-26T16:43:56.184Z,7.32
2022-08-26T16:46:25.959Z,7.60
2022-08-26T16:48:54.491Z,6.95
2022-08-26T16:51:23.657Z,4.78
2022-08-26T16:53:52.366Z,5.35
2022-08-26T16:56:22.804Z,5.07
2022-08-26T16:58:50.690Z,5.25
2022-08-26T17:01:18.187Z,5.25
2022-08-26T17:03:45.240Z,4.93
2022-08-26T17:06:13.223Z,5.07
2022-08-26T17:08:41.472Z,4.55
2022-08-26T17:11:09.260Z,5.18
2022-08-26T17:13:38.111Z,4.43
2022-08-26T17:16:09.150Z,4.93
2022-08-26T17:18:36.450Z,5.05
2022-08-26T17:21:09.352Z,5.28
2022-08-26T17:23:37.513Z,5.00
2022-08-26T17:26:05.026Z,5.82
2022-08-26T17:28:32.339Z,4.90
2022-08-26T17:31:00.221Z,5.30
2022-08-26T17:33:27.333Z,5.10
2022-08-26T17:35:56.044Z,5.25
2022-08-26T17:38:24.094Z,4.60
2022-08-26T17:40:52.093Z,4.90
2022-08-26T17:43:19.680Z,4.60
2022-08-26T17:45:46.912Z,5.43
2022-08-26T17:48:14.085Z,4.90
2022-08-26T17:50:42.721Z,5.03
2022-08-26T17:53:18.481Z,5.07
2022-08-26T17:55:45.905Z,4.97
2022-08-26T17:58:14.664Z,4.97
2022-08-26T18:00:50.603Z,4.97
2022-08-26T18:03:19.211Z,4.95
2022-08-26T18:05:52.024Z,5.03
2022-08-26T18:08:20.143Z,4.72
2022-08-26T18:10:47.782Z,4.80
2022-08-26T18:13:15.098Z,4.97
2022-08-26T18:15:43.719Z,5.10
2022-08-26T18:18:12.011Z,4.85
2022-08-26T18:20:41.706Z,6.00
2022-08-26T18:25:40.539Z,6.05
2022-08-26T18:28:07.652Z,6.32
2022-08-26T18:30:34.828Z,6.13
2022-08-26T18:33:02.039Z,6.70
2022-08-26T18:35:30.403Z,6.57
2022-08-26T18:37:58.333Z,6.82
2022-08-26T18:40:29.832Z,5.50
2022-08-26T18:42:56.862Z,5.28
2022-08-26T18:45:24.443Z,5.28
2022-08-26T18:47:51.974Z,5.10
2022-08-26T18:50:19.018Z,5.63
2022-08-26T18:52:46.040Z,6.75
2022-08-26T18:55:13.006Z,5.90
2022-08-26T18:57:40.145Z,6.47
2022-08-26T19:00:08.795Z,7.35
2022-08-26T19:02:36.008Z,7.40
2022-08-26T19:05:03.723Z,7.22
2022-08-26T19:07:30.857Z,6.38
2022-08-26T19:09:57.916Z,6.13
2022-08-26T19:12:26.982Z,6.18
2022-08-26T19:27:43.706Z,6.45
2022-08-26T19:30:11.205Z,6.68
2022-08-26T19:32:38.441Z,6.00
2022-08-26T19:35:06.269Z,6.50
2022-08-26T19:37:33.319Z,6.10
2022-08-26T19:40:00.467Z,5.65
2022-08-26T19:42:27.648Z,5.43
2022-08-26T19:45:11.025Z,5.03
2022-08-26T19:47:51.950Z,5.68
2022-08-26T19:50:18.978Z,6.40
2022-08-26T19:52:46.061Z,6.68
2022-08-26T19:55:15.406Z,6.70
2022-08-26T19:57:43.450Z,6.07
2022-08-26T20:00:14.940Z,7.13
2022-08-26T20:02:42.885Z,6.93
2022-08-26T20:05:12.019Z,7.63
2022-08-26T20:07:39.736Z,7.00
2022-08-26T20:10:09.873Z,6.70
2022-08-26T20:12:37.044Z,7.43
2022-08-26T20:15:05.229Z,6.57
2022-08-26T20:17:33.002Z,6.85
2022-08-26T20:20:28.440Z,6.70
2022-08-26T20:23:01.778Z,7.05
2022-08-26T20:25:29.330Z,7.10
2022-08-26T20:27:56.398Z,6.85
2022-08-26T20:30:23.616Z,7.50
2022-08-26T20:32:50.701Z,7.18
2022-08-26T20:35:17.794Z,7.97
2022-08-26T20:37:44.939Z,7.10
2022-08-26T20:40:14.046Z,7.38
2022-08-26T20:42:41.293Z,7.28
2022-08-26T20:45:08.849Z,8.18
2022-08-26T20:47:36.028Z,7.82
2022-08-26T20:50:03.515Z,8.35
2022-08-26T20:52:30.541Z,7.85
2022-08-26T20:54:57.530Z,7.10
2022-08-26T20:57:24.542Z,7.60
2022-08-26T20:59:51.602Z,7.03
2022-08-26T21:02:18.627Z,7.57
2022-08-26T21:04:45.653Z,7.53
2022-08-26T21:07:12.759Z,7.28
2022-08-26T21:09:39.815Z,7.45
2022-08-26T21:12:06.983Z,7.90
2022-08-26T21:14:34.036Z,9.02
2022-08-26T21:17:01.225Z,8.63
2022-08-26T21:19:28.312Z,7.90
2022-08-26T21:21:55.768Z,8.63
2022-08-26T21:24:22.765Z,7.30
2022-08-26T21:26:49.856Z,7.47
2022-08-26T21:29:16.853Z,7.95
2022-08-26T21:31:46.496Z,7.97
2022-08-26T21:34:18.946Z,8.27
2022-08-26T21:36:47.842Z,8.82
2022-08-26T21:39:15.508Z,8.13
2022-08-26T21:41:44.052Z,7.80
2022-08-26T21:44:12.218Z,8.00
2022-08-26T21:46:39.362Z,8.10
2022-08-26T21:49:08.917Z,8.50
2022-08-26T21:51:38.659Z,9.52
2022-08-26T21:56:40.314Z,8.68
2022-08-26T21:59:08.565Z,9.18
2022-08-26T22:01:36.172Z,8.88
2022-08-26T22:04:04.937Z,9.77
2022-08-26T22:06:33.723Z,9.55
2022-08-26T22:09:00.942Z,9.60
2022-08-26T22:11:29.095Z,9.60
2022-08-26T22:13:57.016Z,9.68
2022-08-26T22:16:26.889Z,9.30
2022-08-26T22:21:24.629Z,8.18
2022-08-26T22:26:25.972Z,8.70
2022-08-26T22:28:58.713Z,7.88
2022-08-26T22:31:37.245Z,8.90
2022-08-26T22:34:08.545Z,8.77
2022-08-26T22:36:42.672Z,9.05
2022-08-26T22:39:15.220Z,8.70
2022-08-26T22:41:44.149Z,9.18
2022-08-26T22:44:12.595Z,8.33
2022-08-26T22:46:41.033Z,9.00
2022-08-26T22:49:10.150Z,8.52
2022-08-26T22:51:37.390Z,8.45
2022-08-26T22:54:04.953Z,7.78
2022-08-26T22:56:32.321Z,8.02
2022-08-26T22:58:59.375Z,8.40
2022-08-26T23:01:26.881Z,7.97
2022-08-26T23:03:53.980Z,7.90
2022-08-26T23:06:21.022Z,8.45
2022-08-26T23:08:48.271Z,8.07
2022-08-26T23:11:15.668Z,8.50
2022-08-26T23:13:42.951Z,10.00
2022-08-26T23:16:11.981Z,10.48
2022-08-26T23:18:41.073Z,9.88
2022-08-26T23:21:08.921Z,10.30
2022-08-26T23:23:37.518Z,10.85
2022-08-26T23:26:06.474Z,11.25
2022-08-26T23:28:34.800Z,11.35
2022-08-26T23:31:01.952Z,12.80
2022-08-26T23:33:49.155Z,11.20
2022-08-26T23:36:18.018Z,12.30
2022-08-26T23:38:52.361Z,13.25
2022-08-26T23:41:21.777Z,13.55
2022-08-26T23:43:49.200Z,11.75
2022-08-26T23:46:16.462Z,11.65
2022-08-26T23:48:43.728Z,11.40
2022-08-26T23:51:30.115Z,11.48
2022-08-26T23:53:58.040Z,12.05
2022-08-26T23:56:25.434Z,11.60
2022-08-26T23:58:54.366Z,12.25
